Terminal Aerodrome Forecast
Issued by NWS

Home | Current Version | Previous Version | Text Only | Print | Product List | Glossary On
Versions: 1 2 3 4 5 6 7 8 9 10 11 12 13 14 15 16 17 18 19 20 21 22 23 24 25 26 27 28
000
FTUS45 KPSR 262348 CCA
TAFIWA
TAF COR
KIWA 262348Z 2700/2724 24006KT P6SM SCT080
     FM270500 12008KT P6SM FEW250
     FM271700 16007KT P6SM SCT060 BKN150
     FM272100 21010KT P6SM SCT060 BKN150
      AMD LTD TO CLD VIS AND WIND 2703/2713=

USA.gov is the U.S. government's official web portal to all federal, state and local government web resources and services.